sensor_id;sensor_type;location;lat;lon;timestamp;pressure;altitude;pressure_sealevel;temperature;humidity
34237;BME280;20501;45.956;13.632;2023-04-03T00:01:41;100402.25;;;10.28;73.16
34237;BME280;20501;45.956;13.632;2023-04-03T00:04:07;100406.22;;;10.33;71.24
34237;BME280;20501;45.956;13.632;2023-04-03T00:06:33;100400.81;;;10.04;74.03
34237;BME280;20501;45.956;13.632;2023-04-03T00:08:59;100402.06;;;10.78;70.54
34237;BME280;20501;45.956;13.632;2023-04-03T00:11:24;100400.16;;;11.82;67.98
34237;BME280;20501;45.956;13.632;2023-04-03T00:13:50;100409.66;;;12.50;66.25
34237;BME280;20501;45.956;13.632;2023-04-03T00:16:15;100398.34;;;11.27;67.80
34237;BME280;20501;45.956;13.632;2023-04-03T00:18:41;100404.44;;;11.29;70.94
34237;BME280;20501;45.956;13.632;2023-04-03T00:21:07;100401.00;;;11.65;69.23
34237;BME280;20501;45.956;13.632;2023-04-03T00:23:33;100404.66;;;11.45;70.70
34237;BME280;20501;45.956;13.632;2023-04-03T00:25:59;100401.38;;;11.70;69.11
34237;BME280;20501;45.956;13.632;2023-04-03T00:28:25;100399.19;;;12.37;66.18
34237;BME280;20501;45.956;13.632;2023-04-03T00:30:52;100404.19;;;11.78;65.53
34237;BME280;20501;45.956;13.632;2023-04-03T00:33:17;100402.44;;;11.31;66.61
34237;BME280;20501;45.956;13.632;2023-04-03T00:35:46;100413.53;;;11.38;68.16
34237;BME280;20501;45.956;13.632;2023-04-03T00:38:12;100389.44;;;11.17;67.23
34237;BME280;20501;45.956;13.632;2023-04-03T00:40:41;100395.28;;;10.55;68.44
34237;BME280;20501;45.956;13.632;2023-04-03T00:43:18;100386.28;;;10.83;66.65
34237;BME280;20501;45.956;13.632;2023-04-03T00:45:49;100385.03;;;11.06;66.44
34237;BME280;20501;45.956;13.632;2023-04-03T00:48:20;100394.59;;;11.66;65.31
34237;BME280;20501;45.956;13.632;2023-04-03T00:50:46;100390.78;;;11.30;64.21
34237;BME280;20501;45.956;13.632;2023-04-03T00:53:17;100380.88;;;11.21;63.91
34237;BME280;20501;45.956;13.632;2023-04-03T00:55:44;100381.97;;;11.28;63.15
34237;BME280;20501;45.956;13.632;2023-04-03T00:58:12;100380.47;;;11.44;63.26
34237;BME280;20501;45.956;13.632;2023-04-03T01:00:40;100368.09;;;11.13;62.76
34237;BME280;20501;45.956;13.632;2023-04-03T01:03:07;100374.16;;;11.25;62.94
34237;BME280;20501;45.956;13.632;2023-04-03T01:05:33;100377.94;;;11.60;65.91
34237;BME280;20501;45.956;13.632;2023-04-03T01:07:58;100370.34;;;11.46;61.94
34237;BME280;20501;45.956;13.632;2023-04-03T01:10:26;100371.53;;;11.61;61.87
34237;BME280;20501;45.956;13.632;2023-04-03T01:12:51;100369.88;;;11.79;60.01
34237;BME280;20501;45.956;13.632;2023-04-03T01:15:23;100375.66;;;11.66;59.54
34237;BME280;20501;45.956;13.632;2023-04-03T01:17:54;100377.09;;;11.78;63.21
34237;BME280;20501;45.956;13.632;2023-04-03T01:25:35;100370.16;;;11.29;61.23
34237;BME280;20501;45.956;13.632;2023-04-03T01:28:06;100370.25;;;11.38;63.96
34237;BME280;20501;45.956;13.632;2023-04-03T01:30:42;100378.13;;;11.95;61.86
34237;BME280;20501;45.956;13.632;2023-04-03T01:33:08;100385.19;;;11.88;63.99
34237;BME280;20501;45.956;13.632;2023-04-03T01:35:33;100382.19;;;11.07;62.31
34237;BME280;20501;45.956;13.632;2023-04-03T01:37:59;100378.16;;;10.83;62.79
34237;BME280;20501;45.956;13.632;2023-04-03T01:40:25;100376.34;;;11.40;62.15
34237;BME280;20501;45.956;13.632;2023-04-03T01:42:51;100375.81;;;12.36;62.27
34237;BME280;20501;45.956;13.632;2023-04-03T01:45:16;100372.19;;;11.91;63.75
34237;BME280;20501;45.956;13.632;2023-04-03T01:47:42;100376.41;;;12.04;60.44
34237;BME280;20501;45.956;13.632;2023-04-03T01:50:08;100383.44;;;11.69;61.26
34237;BME280;20501;45.956;13.632;2023-04-03T01:52:33;100371.03;;;11.76;62.22
34237;BME280;20501;45.956;13.632;2023-04-03T01:54:59;100372.09;;;11.83;60.78
34237;BME280;20501;45.956;13.632;2023-04-03T01:57:25;100368.25;;;12.40;58.97
34237;BME280;20501;45.956;13.632;2023-04-03T01:59:50;100366.84;;;11.82;59.24
34237;BME280;20501;45.956;13.632;2023-04-03T02:02:16;100364.50;;;11.69;63.22
34237;BME280;20501;45.956;13.632;2023-04-03T02:04:42;100365.50;;;12.14;63.22
34237;BME280;20501;45.956;13.632;2023-04-03T02:07:07;100363.41;;;11.61;62.59
34237;BME280;20501;45.956;13.632;2023-04-03T02:09:33;100356.59;;;11.57;58.13
34237;BME280;20501;45.956;13.632;2023-04-03T02:11:58;100356.28;;;12.06;62.45
34237;BME280;20501;45.956;13.632;2023-04-03T02:14:24;100348.81;;;12.71;61.69
34237;BME280;20501;45.956;13.632;2023-04-03T02:16:49;100353.50;;;12.16;57.23
34237;BME280;20501;45.956;13.632;2023-04-03T02:19:15;100352.22;;;11.01;59.39
34237;BME280;20501;45.956;13.632;2023-04-03T02:21:41;100354.09;;;11.74;61.88
34237;BME280;20501;45.956;13.632;2023-04-03T02:24:07;100350.78;;;12.34;60.98
34237;BME280;20501;45.956;13.632;2023-04-03T02:26:32;100351.56;;;11.44;56.23
34237;BME280;20501;45.956;13.632;2023-04-03T02:28:57;100350.63;;;11.82;57.26
34237;BME280;20501;45.956;13.632;2023-04-03T02:31:23;100352.53;;;11.89;62.56
34237;BME280;20501;45.956;13.632;2023-04-03T02:33:49;100353.22;;;11.55;56.32
34237;BME280;20501;45.956;13.632;2023-04-03T02:36:15;100350.63;;;12.00;57.01
34237;BME280;20501;45.956;13.632;2023-04-03T02:38:41;100343.91;;;11.40;60.71
34237;BME280;20501;45.956;13.632;2023-04-03T02:41:08;100347.56;;;11.49;56.42
34237;BME280;20501;45.956;13.632;2023-04-03T02:43:35;100348.50;;;12.03;61.92
34237;BME280;20501;45.956;13.632;2023-04-03T02:46:00;100346.69;;;10.92;58.42
34237;BME280;20501;45.956;13.632;2023-04-03T02:48:26;100355.69;;;11.49;57.88
34237;BME280;20501;45.956;13.632;2023-04-03T02:50:52;100343.31;;;11.64;56.88
34237;BME280;20501;45.956;13.632;2023-04-03T02:53:18;100346.78;;;11.56;59.10
34237;BME280;20501;45.956;13.632;2023-04-03T02:55:44;100351.28;;;11.48;58.88
34237;BME280;20501;45.956;13.632;2023-04-03T02:58:09;100342.63;;;11.44;56.69
34237;BME280;20501;45.956;13.632;2023-04-03T03:00:35;100335.78;;;12.04;56.19
34237;BME280;20501;45.956;13.632;2023-04-03T03:03:00;100341.31;;;11.66;56.05
34237;BME280;20501;45.956;13.632;2023-04-03T03:05:26;100340.97;;;12.15;55.12
34237;BME280;20501;45.956;13.632;2023-04-03T03:07:52;100345.38;;;11.98;59.83
34237;BME280;20501;45.956;13.632;2023-04-03T03:10:18;100342.72;;;11.70;55.96
34237;BME280;20501;45.956;13.632;2023-04-03T03:12:43;100350.81;;;11.52;58.48
34237;BME280;20501;45.956;13.632;2023-04-03T03:15:09;100350.16;;;12.04;59.13
34237;BME280;20501;45.956;13.632;2023-04-03T03:17:35;100351.50;;;11.26;54.24
34237;BME280;20501;45.956;13.632;2023-04-03T03:20:01;100349.84;;;11.71;57.85
34237;BME280;20501;45.956;13.632;2023-04-03T03:22:28;100353.56;;;11.14;54.33
34237;BME280;20501;45.956;13.632;2023-04-03T03:24:53;100347.84;;;11.18;55.03
34237;BME280;20501;45.956;13.632;2023-04-03T03:27:19;100348.47;;;10.74;54.95
34237;BME280;20501;45.956;13.632;2023-04-03T03:29:45;100366.31;;;10.94;55.83
34237;BME280;20501;45.956;13.632;2023-04-03T03:32:10;100364.00;;;11.37;57.97
34237;BME280;20501;45.956;13.632;2023-04-03T03:34:36;100364.03;;;11.73;57.26
34237;BME280;20501;45.956;13.632;2023-04-03T03:37:01;100366.53;;;11.11;53.68
34237;BME280;20501;45.956;13.632;2023-04-03T03:39:27;100360.13;;;11.40;54.48
34237;BME280;20501;45.956;13.632;2023-04-03T03:41:53;100357.91;;;10.97;53.70
34237;BME280;20501;45.956;13.632;2023-04-03T03:44:19;100365.13;;;11.07;54.73
34237;BME280;20501;45.956;13.632;2023-04-03T03:46:45;100368.53;;;11.37;53.81
34237;BME280;20501;45.956;13.632;2023-04-03T03:49:10;100375.66;;;11.10;59.15
34237;BME280;20501;45.956;13.632;2023-04-03T03:51:36;100377.34;;;10.73;54.12
34237;BME280;20501;45.956;13.632;2023-04-03T03:54:03;100368.00;;;10.48;54.74
34237;BME280;20501;45.956;13.632;2023-04-03T03:56:28;100374.03;;;11.45;56.73
34237;BME280;20501;45.956;13.632;2023-04-03T03:58:54;100375.69;;;11.00;56.55
34237;BME280;20501;45.956;13.632;2023-04-03T04:01:22;100376.03;;;11.15;54.67
34237;BME280;20501;45.956;13.632;2023-04-03T04:03:48;100389.75;;;10.36;53.93
34237;BME280;20501;45.956;13.632;2023-04-03T04:06:13;100377.81;;;10.39;55.83
34237;BME280;20501;45.956;13.632;2023-04-03T04:08:39;100392.56;;;11.68;55.58
34237;BME280;20501;45.956;13.632;2023-04-03T04:11:04;100383.06;;;10.21;54.03
34237;BME280;20501;45.956;13.632;2023-04-03T04:13:30;100377.66;;;9.91;54.49
34237;BME280;20501;45.956;13.632;2023-04-03T04:15:55;100387.34;;;11.01;53.81
34237;BME280;20501;45.956;13.632;2023-04-03T04:18:21;100383.56;;;11.49;57.08
34237;BME280;20501;45.956;13.632;2023-04-03T04:20:47;100378.88;;;10.76;53.85
34237;BME280;20501;45.956;13.632;2023-04-03T04:23:13;100383.78;;;11.66;55.84
34237;BME280;20501;45.956;13.632;2023-04-03T04:25:39;100389.59;;;11.43;57.56
34237;BME280;20501;45.956;13.632;2023-04-03T04:28:04;100388.63;;;11.06;57.70
34237;BME280;20501;45.956;13.632;2023-04-03T04:30:30;100391.19;;;10.98;52.29
34237;BME280;20501;45.956;13.632;2023-04-03T04:32:55;100387.03;;;10.36;52.99
34237;BME280;20501;45.956;13.632;2023-04-03T04:35:21;100384.91;;;9.91;53.66
34237;BME280;20501;45.956;13.632;2023-04-03T04:37:46;100389.09;;;10.82;53.47
34237;BME280;20501;45.956;13.632;2023-04-03T04:40:12;100398.13;;;10.63;53.55
34237;BME280;20501;45.956;13.632;2023-04-03T04:42:37;100392.91;;;10.99;56.09
34237;BME280;20501;45.956;13.632;2023-04-03T04:45:03;100384.31;;;11.13;58.30
34237;BME280;20501;45.956;13.632;2023-04-03T04:47:29;100398.19;;;10.91;56.18
34237;BME280;20501;45.956;13.632;2023-04-03T04:49:54;100400.25;;;10.30;51.73
34237;BME280;20501;45.956;13.632;2023-04-03T04:52:20;100402.69;;;9.43;52.74
34237;BME280;20501;45.956;13.632;2023-04-03T04:54:46;100394.97;;;9.69;53.38
34237;BME280;20501;45.956;13.632;2023-04-03T04:57:11;100409.91;;;9.93;53.72
34237;BME280;20501;45.956;13.632;2023-04-03T04:59:36;100412.19;;;10.17;52.48
34237;BME280;20501;45.956;13.632;2023-04-03T05:02:02;100408.22;;;10.51;56.30
34237;BME280;20501;45.956;13.632;2023-04-03T05:04:28;100414.38;;;11.66;56.19
34237;BME280;20501;45.956;13.632;2023-04-03T05:06:53;100424.84;;;10.46;53.69
34237;BME280;20501;45.956;13.632;2023-04-03T05:09:18;100417.59;;;10.37;51.35
34237;BME280;20501;45.956;13.632;2023-04-03T05:11:45;100420.84;;;10.11;51.43
34237;BME280;20501;45.956;13.632;2023-04-03T05:14:11;100425.69;;;10.66;51.65
34237;BME280;20501;45.956;13.632;2023-04-03T05:16:36;100422.84;;;10.68;54.30
34237;BME280;20501;45.956;13.632;2023-04-03T05:19:02;100423.06;;;9.76;50.62
34237;BME280;20501;45.956;13.632;2023-04-03T05:21:28;100436.50;;;10.37;51.51
34237;BME280;20501;45.956;13.632;2023-04-03T05:23:58;100431.06;;;10.27;55.20
34237;BME280;20501;45.956;13.632;2023-04-03T05:26:23;100437.13;;;9.70;50.72
34237;BME280;20501;45.956;13.632;2023-04-03T05:28:48;100440.06;;;10.57;50.56
34237;BME280;20501;45.956;13.632;2023-04-03T05:31:14;100436.50;;;10.37;49.48
34237;BME280;20501;45.956;13.632;2023-04-03T05:33:40;100450.09;;;9.96;55.18
34237;BME280;20501;45.956;13.632;2023-04-03T05:36:06;100443.72;;;10.27;49.32
34237;BME280;20501;45.956;13.632;2023-04-03T05:38:32;100451.19;;;9.84;49.59
34237;BME280;20501;45.956;13.632;2023-04-03T05:40:57;100444.19;;;10.42;51.09
34237;BME280;20501;45.956;13.632;2023-04-03T05:43:23;100445.78;;;9.74;52.34
34237;BME280;20501;45.956;13.632;2023-04-03T05:45:48;100454.19;;;9.90;51.23
34237;BME280;20501;45.956;13.632;2023-04-03T05:48:14;100464.31;;;10.18;51.42
34237;BME280;20501;45.956;13.632;2023-04-03T05:50:39;100451.03;;;9.75;50.24
34237;BME280;20501;45.956;13.632;2023-04-03T05:53:07;100453.78;;;9.85;52.94
34237;BME280;20501;45.956;13.632;2023-04-03T05:55:34;100451.72;;;9.68;49.42
34237;BME280;20501;45.956;13.632;2023-04-03T05:57:59;100458.53;;;10.52;47.68
34237;BME280;20501;45.956;13.632;2023-04-03T06:00:25;100459.91;;;10.95;52.82
34237;BME280;20501;45.956;13.632;2023-04-03T06:02:50;100465.50;;;9.74;48.27
34237;BME280;20501;45.956;13.632;2023-04-03T06:05:15;100468.78;;;10.38;48.56
34237;BME280;20501;45.956;13.632;2023-04-03T06:07:41;100455.28;;;10.48;48.59
34237;BME280;20501;45.956;13.632;2023-04-03T06:10:07;100451.63;;;9.38;48.78
34237;BME280;20501;45.956;13.632;2023-04-03T06:12:33;100463.56;;;9.86;49.10
34237;BME280;20501;45.956;13.632;2023-04-03T06:14:59;100457.72;;;9.81;48.38
34237;BME280;20501;45.956;13.632;2023-04-03T06:17:24;100470.47;;;10.40;48.62
34237;BME280;20501;45.956;13.632;2023-04-03T06:19:50;100471.09;;;9.93;49.02
34237;BME280;20501;45.956;13.632;2023-04-03T06:22:16;100466.72;;;9.51;48.00
34237;BME280;20501;45.956;13.632;2023-04-03T06:24:41;100471.06;;;9.73;52.50
34237;BME280;20501;45.956;13.632;2023-04-03T06:27:07;100470.91;;;9.65;47.95
34237;BME280;20501;45.956;13.632;2023-04-03T06:29:32;100456.31;;;9.87;48.77
34237;BME280;20501;45.956;13.632;2023-04-03T06:31:58;100462.94;;;10.33;46.94
34237;BME280;20501;45.956;13.632;2023-04-03T06:34:23;100476.19;;;9.86;49.28
34237;BME280;20501;45.956;13.632;2023-04-03T06:36:48;100465.75;;;10.02;48.71
34237;BME280;20501;45.956;13.632;2023-04-03T06:39:19;100463.22;;;9.60;49.18
34237;BME280;20501;45.956;13.632;2023-04-03T06:41:48;100485.31;;;10.04;50.74
34237;BME280;20501;45.956;13.632;2023-04-03T06:44:13;100479.00;;;9.65;47.87
34237;BME280;20501;45.956;13.632;2023-04-03T06:46:41;100481.06;;;9.20;49.55
34237;BME280;20501;45.956;13.632;2023-04-03T06:49:07;100476.34;;;9.94;48.83
34237;BME280;20501;45.956;13.632;2023-04-03T06:51:35;100479.63;;;9.88;47.75
34237;BME280;20501;45.956;13.632;2023-04-03T06:54:02;100470.41;;;10.00;46.10
34237;BME280;20501;45.956;13.632;2023-04-03T06:56:28;100483.06;;;10.10;48.52
34237;BME280;20501;45.956;13.632;2023-04-03T06:58:54;100485.66;;;10.80;49.84
34237;BME280;20501;45.956;13.632;2023-04-03T07:01:20;100500.34;;;10.67;47.24
34237;BME280;20501;45.956;13.632;2023-04-03T07:03:47;100488.25;;;10.81;47.58
34237;BME280;20501;45.956;13.632;2023-04-03T07:06:14;100493.06;;;10.88;46.96
34237;BME280;20501;45.956;13.632;2023-04-03T07:08:40;100492.94;;;11.37;51.05
34237;BME280;20501;45.956;13.632;2023-04-03T07:11:07;100492.78;;;11.01;45.38
34237;BME280;20501;45.956;13.632;2023-04-03T07:13:33;100505.00;;;11.05;47.21
34237;BME280;20501;45.956;13.632;2023-04-03T07:15:58;100499.34;;;10.68;46.96
34237;BME280;20501;45.956;13.632;2023-04-03T07:18:24;100497.03;;;11.03;48.74
34237;BME280;20501;45.956;13.632;2023-04-03T07:20:50;100494.59;;;10.31;47.41
34237;BME280;20501;45.956;13.632;2023-04-03T07:23:16;100488.38;;;10.31;46.91
34237;BME280;20501;45.956;13.632;2023-04-03T07:25:46;100496.91;;;10.56;46.25
34237;BME280;20501;45.956;13.632;2023-04-03T07:28:13;100495.94;;;10.66;45.44
34237;BME280;20501;45.956;13.632;2023-04-03T07:30:48;100495.88;;;11.15;48.80
34237;BME280;20501;45.956;13.632;2023-04-03T07:33:15;100508.13;;;11.10;45.83
34237;BME280;20501;45.956;13.632;2023-04-03T07:35:42;100494.44;;;11.21;45.29
34237;BME280;20501;45.956;13.632;2023-04-03T07:38:09;100484.69;;;10.91;44.04
34237;BME280;20501;45.956;13.632;2023-04-03T07:40:35;100503.56;;;11.10;45.27
34237;BME280;20501;45.956;13.632;2023-04-03T07:43:01;100499.50;;;11.44;45.42
34237;BME280;20501;45.956;13.632;2023-04-03T07:45:28;100504.16;;;12.35;48.90
34237;BME280;20501;45.956;13.632;2023-04-03T07:47:53;100505.13;;;11.88;44.36
34237;BME280;20501;45.956;13.632;2023-04-03T07:50:19;100511.28;;;12.18;49.43
34237;BME280;20501;45.956;13.632;2023-04-03T07:52:45;100517.75;;;12.26;44.76
34237;BME280;20501;45.956;13.632;2023-04-03T07:55:11;100533.28;;;12.05;43.14
34237;BME280;20501;45.956;13.632;2023-04-03T07:57:37;100511.19;;;11.72;43.14
34237;BME280;20501;45.956;13.632;2023-04-03T08:00:06;100512.22;;;11.61;43.13
34237;BME280;20501;45.956;13.632;2023-04-03T08:02:31;100491.28;;;11.26;46.50
34237;BME280;20501;45.956;13.632;2023-04-03T08:05:00;100495.75;;;11.83;46.10
34237;BME280;20501;45.956;13.632;2023-04-03T08:07:25;100507.44;;;11.83;41.84
34237;BME280;20501;45.956;13.632;2023-04-03T08:09:51;100505.94;;;11.99;41.64
34237;BME280;20501;45.956;13.632;2023-04-03T08:12:17;100517.47;;;12.01;42.11
34237;BME280;20501;45.956;13.632;2023-04-03T08:14:42;100514.78;;;12.47;42.46
34237;BME280;20501;45.956;13.632;2023-04-03T08:17:08;100500.03;;;11.85;42.35
34237;BME280;20501;45.956;13.632;2023-04-03T08:19:37;100530.06;;;11.54;41.46
34237;BME280;20501;45.956;13.632;2023-04-03T08:22:03;100498.25;;;11.28;40.89
34237;BME280;20501;45.956;13.632;2023-04-03T08:24:30;100490.50;;;11.81;44.70
34237;BME280;20501;45.956;13.632;2023-04-03T08:26:56;100493.81;;;12.03;40.91
34237;BME280;20501;45.956;13.632;2023-04-03T08:29:21;100494.97;;;12.00;44.35
34237;BME280;20501;45.956;13.632;2023-04-03T08:31:47;100508.97;;;12.42;43.55
34237;BME280;20501;45.956;13.632;2023-04-03T08:34:14;100482.44;;;11.99;39.14
34237;BME280;20501;45.956;13.632;2023-04-03T08:36:40;100510.56;;;12.16;42.90
34237;BME280;20501;45.956;13.632;2023-04-03T08:39:06;100503.25;;;11.99;42.74
34237;BME280;20501;45.956;13.632;2023-04-03T08:41:43;100502.13;;;12.37;45.17
34237;BME280;20501;45.956;13.632;2023-04-03T08:49:24;100501.38;;;12.81;40.64
34237;BME280;20501;45.956;13.632;2023-04-03T08:51:51;100490.69;;;12.62;43.57
34237;BME280;20501;45.956;13.632;2023-04-03T08:54:30;100494.56;;;12.41;45.98
34237;BME280;20501;45.956;13.632;2023-04-03T08:57:00;100480.88;;;12.43;44.19
34237;BME280;20501;45.956;13.632;2023-04-03T08:59:29;100494.69;;;12.21;40.40
34237;BME280;20501;45.956;13.632;2023-04-03T09:01:59;100487.91;;;12.53;38.39
34237;BME280;20501;45.956;13.632;2023-04-03T09:04:28;100495.66;;;12.48;38.23
34237;BME280;20501;45.956;13.632;2023-04-03T09:07:11;100493.84;;;12.75;39.67
34237;BME280;20501;45.956;13.632;2023-04-03T09:09:40;100491.69;;;12.61;39.77
34237;BME280;20501;45.956;13.632;2023-04-03T09:12:27;100491.94;;;12.67;37.67
34237;BME280;20501;45.956;13.632;2023-04-03T09:15:17;100487.34;;;12.32;37.85
34237;BME280;20501;45.956;13.632;2023-04-03T09:17:59;100493.47;;;12.88;39.00
34237;BME280;20501;45.956;13.632;2023-04-03T09:25:46;100512.69;;;12.59;38.84
34237;BME280;20501;45.956;13.632;2023-04-03T09:28:13;100489.75;;;12.89;39.43
34237;BME280;20501;45.956;13.632;2023-04-03T09:30:38;100492.59;;;12.88;37.58
34237;BME280;20501;45.956;13.632;2023-04-03T09:33:04;100491.50;;;12.98;37.88
34237;BME280;20501;45.956;13.632;2023-04-03T09:35:35;100487.31;;;13.30;36.91
34237;BME280;20501;45.956;13.632;2023-04-03T09:43:31;100483.72;;;13.30;41.19
34237;BME280;20501;45.956;13.632;2023-04-03T09:46:24;100492.22;;;13.27;38.38
34237;BME280;20501;45.956;13.632;2023-04-03T09:49:01;100475.25;;;12.80;37.98
34237;BME280;20501;45.956;13.632;2023-04-03T09:51:28;100491.44;;;12.90;41.00
34237;BME280;20501;45.956;13.632;2023-04-03T09:53:55;100480.06;;;13.39;40.94
34237;BME280;20501;45.956;13.632;2023-04-03T09:56:22;100471.25;;;13.37;37.87
34237;BME280;20501;45.956;13.632;2023-04-03T09:58:49;100462.84;;;13.22;36.52
34237;BME280;20501;45.956;13.632;2023-04-03T10:01:30;100464.88;;;13.46;36.28
34237;BME280;20501;45.956;13.632;2023-04-03T10:04:12;100463.19;;;13.54;34.37
34237;BME280;20501;45.956;13.632;2023-04-03T10:06:40;100462.84;;;13.22;37.06
34237;BME280;20501;45.956;13.632;2023-04-03T10:09:23;100463.22;;;13.01;36.24
34237;BME280;20501;45.956;13.632;2023-04-03T10:12:11;100442.34;;;13.01;38.98
34237;BME280;20501;45.956;13.632;2023-04-03T10:14:40;100463.41;;;13.34;38.95
34237;BME280;20501;45.956;13.632;2023-04-03T10:25:01;100446.81;;;13.72;34.82
34237;BME280;20501;45.956;13.632;2023-04-03T10:34:04;100453.06;;;13.64;38.91
34237;BME280;20501;45.956;13.632;2023-04-03T10:44:03;100438.91;;;13.95;33.71
34237;BME280;20501;45.956;13.632;2023-04-03T10:46:47;100428.75;;;13.97;35.92
34237;BME280;20501;45.956;13.632;2023-04-03T10:49:37;100428.75;;;14.05;37.47
34237;BME280;20501;45.956;13.632;2023-04-03T10:52:18;100428.44;;;14.17;31.49
34237;BME280;20501;45.956;13.632;2023-04-03T10:55:03;100430.03;;;13.68;34.09
34237;BME280;20501;45.956;13.632;2023-04-03T10:57:31;100401.66;;;13.54;32.41
34237;BME280;20501;45.956;13.632;2023-04-03T11:00:00;100383.03;;;13.33;33.69
34237;BME280;20501;45.956;13.632;2023-04-03T11:02:37;100405.97;;;13.82;32.54
34237;BME280;20501;45.956;13.632;2023-04-03T11:05:13;100405.31;;;13.88;33.01
34237;BME280;20501;45.956;13.632;2023-04-03T11:07:45;100397.53;;;14.09;35.04
34237;BME280;20501;45.956;13.632;2023-04-03T11:10:19;100408.56;;;14.08;31.73
34237;BME280;20501;45.956;13.632;2023-04-03T11:12:52;100404.84;;;14.26;31.94
34237;BME280;20501;45.956;13.632;2023-04-03T11:15:22;100397.19;;;14.29;33.12
34237;BME280;20501;45.956;13.632;2023-04-03T11:17:54;100395.00;;;14.16;34.55
34237;BME280;20501;45.956;13.632;2023-04-03T11:20:27;100392.09;;;14.26;30.31
34237;BME280;20501;45.956;13.632;2023-04-03T11:23:22;100372.91;;;14.36;30.70
34237;BME280;20501;45.956;13.632;2023-04-03T11:25:53;100368.50;;;14.35;33.45
34237;BME280;20501;45.956;13.632;2023-04-03T11:28:19;100364.94;;;14.18;33.06
34237;BME280;20501;45.956;13.632;2023-04-03T11:35:44;100364.94;;;14.18;30.44
34237;BME280;20501;45.956;13.632;2023-04-03T11:38:19;100359.13;;;13.96;32.06
34237;BME280;20501;45.956;13.632;2023-04-03T11:40:47;100359.50;;;14.26;34.34
34237;BME280;20501;45.956;13.632;2023-04-03T11:43:27;100353.88;;;14.44;30.39
34237;BME280;20501;45.956;13.632;2023-04-03T11:46:02;100340.47;;;14.43;28.93
34237;BME280;20501;45.956;13.632;2023-04-03T11:51:01;100355.78;;;14.44;32.53
34237;BME280;20501;45.956;13.632;2023-04-03T11:53:35;100342.34;;;14.50;33.35
34237;BME280;20501;45.956;13.632;2023-04-03T11:56:02;100346.78;;;14.51;29.08
34237;BME280;20501;45.956;13.632;2023-04-03T11:58:29;100332.63;;;14.64;29.65
34237;BME280;20501;45.956;13.632;2023-04-03T12:01:02;100324.50;;;14.39;29.89
34237;BME280;20501;45.956;13.632;2023-04-03T12:22:04;100312.59;;;14.65;32.37
34237;BME280;20501;45.956;13.632;2023-04-03T12:26:47;100307.50;;;14.62;31.44
34237;BME280;20501;45.956;13.632;2023-04-03T12:29:23;100305.50;;;14.39;29.50
34237;BME280;20501;45.956;13.632;2023-04-03T12:32:15;100295.91;;;14.85;29.62
34237;BME280;20501;45.956;13.632;2023-04-03T12:37:54;100274.34;;;14.75;29.07
34237;BME280;20501;45.956;13.632;2023-04-03T12:48:22;100273.47;;;14.83;28.78
34237;BME280;20501;45.956;13.632;2023-04-03T12:50:50;100280.66;;;14.59;29.60
34237;BME280;20501;45.956;13.632;2023-04-03T12:53:32;100268.06;;;14.66;31.13
34237;BME280;20501;45.956;13.632;2023-04-03T12:56:24;100266.41;;;14.57;31.90
34237;BME280;20501;45.956;13.632;2023-04-03T12:58:51;100268.06;;;14.75;31.85
34237;BME280;20501;45.956;13.632;2023-04-03T13:01:20;100263.00;;;14.55;30.83
34237;BME280;20501;45.956;13.632;2023-04-03T13:04:04;100263.66;;;14.65;31.36
34237;BME280;20501;45.956;13.632;2023-04-03T13:06:42;100260.44;;;14.70;34.38
34237;BME280;20501;45.956;13.632;2023-04-03T13:09:34;100258.81;;;14.92;30.91
34237;BME280;20501;45.956;13.632;2023-04-03T13:12:13;100260.56;;;14.85;28.48
34237;BME280;20501;45.956;13.632;2023-04-03T13:14:39;100255.31;;;14.83;27.39
34237;BME280;20501;45.956;13.632;2023-04-03T13:17:16;100251.09;;;14.73;28.62
34237;BME280;20501;45.956;13.632;2023-04-03T13:19:42;100251.28;;;14.63;33.63
34237;BME280;20501;45.956;13.632;2023-04-03T13:24:50;100261.09;;;14.80;29.88
34237;BME280;20501;45.956;13.632;2023-04-03T13:27:17;100251.28;;;14.63;28.65
34237;BME280;20501;45.956;13.632;2023-04-03T13:29:43;100239.94;;;14.43;33.91
34237;BME280;20501;45.956;13.632;2023-04-03T13:32:19;100239.88;;;14.59;30.42
34237;BME280;20501;45.956;13.632;2023-04-03T13:34:45;100260.63;;;14.68;29.84
34237;BME280;20501;45.956;13.632;2023-04-03T13:42:33;100237.81;;;14.69;27.85
34237;BME280;20501;45.956;13.632;2023-04-03T13:45:17;100235.81;;;14.55;28.82
34237;BME280;20501;45.956;13.632;2023-04-03T13:47:44;100252.81;;;14.49;35.08
34237;BME280;20501;45.956;13.632;2023-04-03T13:50:24;100246.31;;;14.66;29.18
34237;BME280;20501;45.956;13.632;2023-04-03T13:53:02;100226.44;;;14.66;30.05
34237;BME280;20501;45.956;13.632;2023-04-03T13:55:34;100238.50;;;14.72;29.75
34237;BME280;20501;45.956;13.632;2023-04-03T13:58:20;100228.13;;;14.75;26.99
34237;BME280;20501;45.956;13.632;2023-04-03T14:00:53;100245.63;;;14.73;28.08
34237;BME280;20501;45.956;13.632;2023-04-03T14:03:33;100245.66;;;14.64;26.62
34237;BME280;20501;45.956;13.632;2023-04-03T14:05:59;100229.03;;;14.67;31.06
34237;BME280;20501;45.956;13.632;2023-04-03T14:08:26;100228.19;;;14.42;33.75
34237;BME280;20501;45.956;13.632;2023-04-03T14:10:52;100236.66;;;14.55;27.55
34237;BME280;20501;45.956;13.632;2023-04-03T14:13:19;100222.91;;;14.57;30.74
34237;BME280;20501;45.956;13.632;2023-04-03T14:15:46;100222.88;;;14.65;28.32
34237;BME280;20501;45.956;13.632;2023-04-03T14:18:16;100230.78;;;14.27;29.48